Time;durP1;ratioP1;P1;durP2;ratioP2;P2;SDS_P1;SDS_P2;PMS_P1;PMS_P2;Temp;Humidity;BMP_temperature;BMP_pressure;BME280_temperature;BME280_humidity;BME280_pressure;Samples;Min_cycle;Max_cycle;Signal;HPM_P1;HPM_P2
2023/08/17 00:00:41;;;;;;;7.70;4.90;;;;;;;26.69;40.68;100715.75;104239;1286;69295;-86
2023/08/17 00:03:06;;;;;;;6.80;4.50;;;;;;;26.68;40.71;100708.85;104266;1286;72731;-86
2023/08/17 00:05:33;;;;;;;5.00;4.30;;;;;;;26.69;40.64;100708.79;104164;1288;69272;-86
2023/08/17 00:08:00;;;;;;;5.80;4.70;;;;;;;26.68;40.57;100710.59;104046;1285;69731;-86
2023/08/17 00:10:25;;;;;;;5.00;4.50;;;;;;;26.68;40.66;100706.06;104030;1286;69178;-86
2023/08/17 00:12:51;;;;;;;5.50;4.50;;;;;;;26.68;40.84;100699.20;104661;1288;70542;-86
2023/08/17 00:15:16;;;;;;;5.80;4.80;;;;;;;26.67;40.70;100700.02;105013;1288;69196;-86
2023/08/17 00:17:42;;;;;;;6.30;4.50;;;;;;;26.68;40.72;100703.17;104577;1287;69211;-87
2023/08/17 00:20:09;;;;;;;5.10;4.50;;;;;;;26.68;40.73;100699.24;104379;1287;69243;-86
2023/08/17 00:25:09;;;;;;;7.40;4.60;;;;;;;26.69;40.68;100698.00;104487;1290;69160;-85
2023/08/17 00:27:34;;;;;;;5.90;4.50;;;;;;;26.68;40.74;100695.98;104340;1285;69237;-86
2023/08/17 00:30:00;;;;;;;5.20;4.70;;;;;;;26.68;40.81;100689.86;104388;1288;69202;-86
2023/08/17 00:32:25;;;;;;;5.30;4.60;;;;;;;26.68;40.78;100689.13;104258;1289;69280;-86
2023/08/17 00:34:51;;;;;;;5.60;5.00;;;;;;;26.68;40.76;100691.25;104389;1285;69358;-86
2023/08/17 00:37:16;;;;;;;6.80;4.90;;;;;;;26.68;40.78;100687.44;104112;1292;69325;-85
2023/08/17 00:39:42;;;;;;;6.40;4.90;;;;;;;26.67;40.91;100684.96;104322;1283;69272;-86
2023/08/17 00:42:08;;;;;;;5.90;4.60;;;;;;;26.67;40.81;100682.95;104302;1289;69209;-86
2023/08/17 00:44:33;;;;;;;6.20;4.80;;;;;;;26.67;40.79;100681.66;104278;1286;70513;-86
2023/08/17 00:46:59;;;;;;;5.30;4.70;;;;;;;26.67;40.91;100679.08;104085;1287;70500;-86
2023/08/17 00:49:24;;;;;;;7.60;5.00;;;;;;;26.67;40.91;100681.05;104009;1288;69332;-85
2023/08/17 00:51:50;;;;;;;6.10;5.00;;;;;;;26.67;40.87;100680.33;104128;1286;69403;-85
2023/08/17 00:54:15;;;;;;;6.30;5.10;;;;;;;26.66;40.94;100682.03;104381;1283;69247;-86
2023/08/17 00:56:41;;;;;;;5.90;5.30;;;;;;;26.65;40.88;100683.91;104139;1289;69349;-85
2023/08/17 00:59:06;;;;;;;5.40;4.90;;;;;;;26.66;40.96;100679.53;104345;1288;69256;-86
2023/08/17 01:04:12;;;;;;;5.50;4.90;;;;;;;26.65;41.00;100681.71;104197;1285;74326;-85
2023/08/17 01:06:38;;;;;;;5.20;4.70;;;;;;;26.65;41.06;100684.81;104177;1291;69190;-85
2023/08/17 01:09:03;;;;;;;5.40;4.90;;;;;;;26.64;41.03;100681.52;104156;1286;69346;-85
2023/08/17 01:11:36;;;;;;;6.20;5.10;;;;;;;26.65;41.00;100678.86;104242;1286;70492;-85
2023/08/17 01:14:06;;;;;;;6.20;5.60;;;;;;;26.64;41.11;100680.94;104223;1290;69042;-85
2023/08/17 01:16:43;;;;;;;6.80;5.60;;;;;;;26.65;41.03;100679.55;104154;1285;73780;-91
2023/08/17 01:19:09;;;;;;;8.90;5.30;;;;;;;26.64;41.05;100675.33;104135;1286;66894;-85
2023/08/17 01:21:38;;;;;;;5.90;5.30;;;;;;;26.64;41.11;100671.66;104018;1287;69199;-85
2023/08/17 01:24:03;;;;;;;5.90;4.90;;;;;;;26.64;41.17;100674.66;104062;1285;69275;-85
2023/08/17 01:26:29;;;;;;;5.80;5.20;;;;;;;26.64;41.02;100674.66;104228;1285;69251;-85
2023/08/17 01:28:55;;;;;;;7.30;5.30;;;;;;;26.64;41.19;100677.19;104233;1290;69224;-85
2023/08/17 01:34:04;;;;;;;5.40;4.80;;;;;;;26.63;41.23;100678.13;104233;1285;69168;-86
2023/08/17 01:36:38;;;;;;;6.60;5.00;;;;;;;26.63;41.28;100679.27;104230;1292;69195;-86
2023/08/17 01:39:03;;;;;;;6.20;5.20;;;;;;;26.64;41.33;100680.70;104395;1285;69164;-86
2023/08/17 01:41:29;;;;;;;5.90;5.20;;;;;;;26.64;41.13;100678.59;104187;1287;69198;-85
2023/08/17 01:43:54;;;;;;;5.70;5.10;;;;;;;26.63;41.17;100676.58;104154;1285;69262;-85
2023/08/17 01:48:55;;;;;;;8.70;5.40;;;;;;;26.63;41.29;100678.91;104597;1288;69269;-85
2023/08/17 01:51:20;;;;;;;6.10;5.10;;;;;;;26.62;41.26;100682.42;104401;1285;69227;-85
2023/08/17 01:53:46;;;;;;;7.00;5.40;;;;;;;26.63;41.29;100680.92;104380;1283;69246;-86
2023/08/17 01:56:11;;;;;;;6.20;5.20;;;;;;;26.63;41.26;100679.11;104234;1285;69269;-86
2023/08/17 01:58:37;;;;;;;7.40;5.60;;;;;;;26.63;41.41;100680.92;104232;1284;69292;-86
2023/08/17 02:01:03;;;;;;;6.00;5.10;;;;;;;26.62;41.31;100675.77;104196;1286;69262;-85
2023/08/17 02:03:28;;;;;;;6.30;5.40;;;;;;;26.63;41.35;100677.37;104343;1288;69250;-85
2023/08/17 02:05:58;;;;;;;6.20;5.60;;;;;;;26.62;41.37;100677.27;104223;1285;70926;-86
2023/08/17 02:08:23;;;;;;;6.30;5.50;;;;;;;26.62;41.38;100676.71;104291;1290;69145;-85
2023/08/17 02:10:49;;;;;;;6.80;5.50;;;;;;;26.62;41.40;100674.73;104253;1285;69368;-86
2023/08/17 02:15:48;;;;;;;6.00;5.40;;;;;;;26.61;41.37;100672.96;104383;1285;83120;-85
2023/08/17 02:18:14;;;;;;;5.90;5.30;;;;;;;26.62;41.34;100676.66;103895;1287;363337;-85
2023/08/17 02:20:40;;;;;;;6.70;5.30;;;;;;;26.61;41.48;100674.05;104174;1289;70470;-86
2023/08/17 02:23:05;;;;;;;7.20;5.60;;;;;;;26.61;41.50;100677.61;104193;1285;69332;-85
2023/08/17 02:25:35;;;;;;;6.10;5.10;;;;;;;26.61;41.45;100677.15;104218;1285;69245;-86
2023/08/17 02:28:02;;;;;;;8.10;5.60;;;;;;;26.60;41.41;100674.13;104181;1285;69154;-85
2023/08/17 02:30:27;;;;;;;6.00;4.90;;;;;;;26.60;41.40;100673.23;104291;1285;69212;-85
2023/08/17 02:32:53;;;;;;;6.00;5.00;;;;;;;26.60;41.39;100669.11;104310;1289;69285;-86
2023/08/17 02:35:18;;;;;;;5.90;5.20;;;;;;;26.60;41.45;100669.84;104324;1285;69338;-86
2023/08/17 02:37:44;;;;;;;6.60;5.50;;;;;;;26.61;41.52;100669.73;104494;1285;69139;-87
2023/08/17 02:42:40;;;;;;;;;;;;;;;26.60;41.59;100674.48;107002;1282;66522;-86
2023/08/17 02:45:07;;;;;;;7.80;5.60;;;;;;;26.57;41.54;100678.36;106936;1282;66958;-86
2023/08/17 02:47:32;;;;;;;6.20;5.30;;;;;;;26.58;41.46;100680.05;106243;1283;67235;-86
2023/08/17 02:49:58;;;;;;;7.50;5.30;;;;;;;26.60;41.54;100681.77;106613;1284;69283;-87
2023/08/17 02:52:23;;;;;;;6.50;5.60;;;;;;;26.61;41.60;100680.14;106686;1282;67037;-87
2023/08/17 02:54:49;;;;;;;6.00;5.40;;;;;;;26.61;41.68;100679.20;106375;1282;68323;-86
2023/08/17 02:57:14;;;;;;;5.90;5.30;;;;;;;26.63;41.71;100681.63;104525;1285;74699;-87
2023/08/17 02:59:40;;;;;;;6.90;5.40;;;;;;;26.64;41.64;100684.30;104795;1284;68507;-86
2023/08/17 03:02:05;;;;;;;6.50;5.40;;;;;;;26.64;41.61;100683.02;105793;1291;66949;-86
2023/08/17 03:04:30;;;;;;;6.20;5.60;;;;;;;26.65;41.66;100679.59;104397;1285;69268;-85
2023/08/17 03:06:56;;;;;;;6.20;5.60;;;;;;;26.66;41.61;100680.36;104289;1285;69218;-86
2023/08/17 03:09:21;;;;;;;5.70;5.10;;;;;;;26.65;41.51;100681.04;104288;1284;69249;-86
2023/08/17 03:11:47;;;;;;;6.90;4.90;;;;;;;26.65;41.49;100682.63;104334;1286;69253;-86
2023/08/17 03:14:12;;;;;;;11.90;5.40;;;;;;;26.65;41.44;100686.45;104612;1286;69342;-86
2023/08/17 03:16:38;;;;;;;10.80;5.70;;;;;;;26.65;41.64;100683.71;104613;1285;69253;-85
2023/08/17 03:19:12;;;;;;;7.40;5.80;;;;;;;26.66;41.59;100691.86;104438;1288;69258;-91
2023/08/17 03:21:37;;;;;;;12.30;6.40;;;;;;;26.64;41.69;100689.30;105514;1285;69710;-86
2023/08/17 03:24:03;;;;;;;11.90;6.30;;;;;;;26.62;41.74;100688.98;104310;1290;69424;-85
2023/08/17 03:26:29;;;;;;;9.90;6.00;;;;;;;26.59;42.04;100686.48;104416;1288;69184;-86
2023/08/17 03:28:54;;;;;;;14.90;6.40;;;;;;;26.55;42.22;100684.79;104312;1288;70559;-86
2023/08/17 03:31:21;;;;;;;11.30;6.40;;;;;;;26.52;42.44;100686.64;104505;1284;69250;-86
2023/08/17 03:33:46;;;;;;;9.00;6.40;;;;;;;26.50;42.58;100686.55;104351;1285;69189;-85
2023/08/17 03:36:12;;;;;;;12.20;6.50;;;;;;;26.48;42.43;100686.48;104252;1290;69289;-86
2023/08/17 03:38:39;;;;;;;7.90;6.20;;;;;;;26.47;42.59;100689.45;104292;1286;69217;-85
2023/08/17 03:41:05;;;;;;;10.20;6.00;;;;;;;26.44;42.30;100688.21;104369;1285;68620;-86
2023/08/17 03:43:31;;;;;;;7.80;6.00;;;;;;;26.42;42.33;100690.94;104538;1285;69106;-85
2023/08/17 03:46:13;;;;;;;10.30;6.60;;;;;;;26.41;42.50;100696.48;104399;1285;69333;-91
2023/08/17 03:48:38;;;;;;;9.00;6.40;;;;;;;26.39;42.34;100695.31;104718;1285;69195;-86
2023/08/17 03:51:04;;;;;;;9.50;6.20;;;;;;;26.38;42.32;100697.80;105057;1286;69277;-86
2023/08/17 03:53:30;;;;;;;10.20;6.70;;;;;;;26.37;42.30;100697.83;104963;1284;69223;-86
2023/08/17 03:55:55;;;;;;;9.50;6.20;;;;;;;26.35;42.38;100701.96;104601;1284;69143;-86
2023/08/17 03:58:21;;;;;;;9.30;6.70;;;;;;;26.33;42.56;100702.61;104514;1286;69371;-86
2023/08/17 04:03:26;;;;;;;9.10;7.50;;;;;;;26.31;42.39;100707.23;104470;1290;69107;-86
2023/08/17 04:05:51;;;;;;;7.70;6.90;;;;;;;26.30;42.31;100708.85;104313;1290;69259;-86
2023/08/17 04:08:17;;;;;;;9.00;6.30;;;;;;;26.30;42.57;100709.63;104418;1288;70481;-86
2023/08/17 04:10:42;;;;;;;11.60;6.90;;;;;;;26.28;42.51;100712.29;104378;1286;70416;-86
2023/08/17 04:13:08;;;;;;;10.80;6.70;;;;;;;26.26;42.44;100709.80;104461;1285;69434;-86
2023/08/17 04:15:33;;;;;;;12.40;7.40;;;;;;;26.24;42.68;100712.36;104226;1285;69840;-86
2023/08/17 04:17:59;;;;;;;7.60;6.80;;;;;;;26.23;42.73;100712.64;104263;1290;69240;-86
2023/08/17 04:20:25;;;;;;;13.40;6.50;;;;;;;26.22;42.52;100712.25;104430;1285;69144;-86
2023/08/17 04:22:51;;;;;;;8.20;6.50;;;;;;;26.21;42.54;100714.39;104424;1288;69198;-86
2023/08/17 04:25:16;;;;;;;9.00;6.70;;;;;;;26.20;42.72;100714.86;104294;1285;69128;-86
2023/08/17 04:27:42;;;;;;;8.70;6.30;;;;;;;26.19;42.73;100711.02;106114;1285;69188;-86
2023/08/17 04:30:08;;;;;;;8.80;6.20;;;;;;;26.18;42.77;100713.83;104420;1288;69288;-86
2023/08/17 04:32:34;;;;;;;7.50;6.30;;;;;;;26.18;42.81;100716.23;104390;1286;69234;-86
2023/08/17 04:34:59;;;;;;;10.10;6.60;;;;;;;26.18;42.90;100718.77;104200;1286;69253;-85
2023/08/17 04:37:25;;;;;;;8.00;6.80;;;;;;;26.17;42.89;100721.05;104434;1288;69224;-86
2023/08/17 04:39:55;;;;;;;9.80;6.70;;;;;;;26.17;42.72;100720.18;104349;1286;69154;-91
2023/08/17 04:42:21;;;;;;;9.10;6.40;;;;;;;26.17;43.00;100721.88;104286;1289;73554;-86
2023/08/17 04:44:46;;;;;;;9.70;7.10;;;;;;;26.18;43.12;100721.25;104368;1289;69263;-85
2023/08/17 04:47:12;;;;;;;9.90;6.70;;;;;;;26.17;43.09;100724.91;104342;1288;69285;-85
2023/08/17 04:49:37;;;;;;;8.90;6.30;;;;;;;26.17;43.04;100726.31;104423;1289;69266;-86
2023/08/17 04:52:03;;;;;;;9.30;6.80;;;;;;;26.17;43.01;100724.82;104520;1286;69199;-85
2023/08/17 04:54:29;;;;;;;12.80;6.80;;;;;;;26.16;43.20;100725.65;104328;1289;69189;-86
2023/08/17 04:56:57;;;;;;;11.50;6.50;;;;;;;26.17;43.15;100726.99;104311;1285;69273;-86
2023/08/17 04:59:23;;;;;;;8.40;6.40;;;;;;;26.17;43.07;100727.91;104326;1287;69103;-85
2023/08/17 05:01:48;;;;;;;8.30;6.40;;;;;;;26.18;43.22;100730.33;104328;1289;69255;-86
2023/08/17 05:04:14;;;;;;;10.50;6.90;;;;;;;26.18;43.28;100730.79;104361;1289;69198;-86
2023/08/17 05:06:48;;;;;;;8.00;6.30;;;;;;;26.19;43.11;100729.33;104143;1286;70140;-91
2023/08/17 05:09:13;;;;;;;6.90;5.80;;;;;;;26.19;43.13;100731.02;104382;1286;69133;-86
2023/08/17 05:11:40;;;;;;;12.70;6.80;;;;;;;26.20;43.45;100730.14;104403;1287;68001;-85
2023/08/17 05:14:05;;;;;;;9.10;6.90;;;;;;;26.20;43.44;100727.86;104465;1285;69134;-86
2023/08/17 05:16:31;;;;;;;8.80;6.50;;;;;;;26.20;43.12;100724.81;104492;1285;69151;-86
2023/08/17 05:18:59;;;;;;;11.10;6.40;;;;;;;26.21;43.33;100725.84;104295;1285;69253;-86
2023/08/17 05:21:25;;;;;;;9.30;6.90;;;;;;;26.20;43.55;100726.77;104405;1284;69278;-85
2023/08/17 05:23:50;;;;;;;9.00;6.40;;;;;;;26.20;43.44;100723.99;104539;1285;67309;-85
2023/08/17 05:26:16;;;;;;;11.40;7.10;;;;;;;26.21;43.34;100721.65;104564;1286;69310;-85
2023/08/17 05:28:42;;;;;;;15.20;7.30;;;;;;;26.22;43.51;100722.58;104133;1292;69271;-85
2023/08/17 05:31:08;;;;;;;10.00;6.60;;;;;;;26.22;43.38;100720.80;104219;1285;69285;-85
2023/08/17 05:33:43;;;;;;;17.90;6.70;;;;;;;26.23;43.38;100722.55;104115;1285;69194;-91
2023/08/17 05:36:08;;;;;;;15.50;7.40;;;;;;;26.23;43.37;100721.58;104380;1286;69256;-85
2023/08/17 05:38:34;;;;;;;10.50;6.60;;;;;;;26.24;43.34;100718.29;104379;1287;69185;-85
2023/08/17 05:40:59;;;;;;;11.10;6.50;;;;;;;26.24;43.36;100714.02;104472;1289;69253;-85
2023/08/17 05:43:25;;;;;;;8.60;6.80;;;;;;;26.25;43.39;100716.21;104389;1285;69252;-85
2023/08/17 05:45:50;;;;;;;9.80;6.40;;;;;;;26.25;43.41;100717.13;104392;1285;69232;-86
2023/08/17 05:48:18;;;;;;;9.60;6.50;;;;;;;26.25;43.43;100721.41;104258;1286;69241;-85
2023/08/17 05:50:44;;;;;;;12.80;8.90;;;;;;;26.26;43.49;100721.86;105921;1285;69594;-86
2023/08/17 05:53:13;;;;;;;11.40;8.40;;;;;;;26.27;43.55;100720.09;106566;1285;67885;-86
2023/08/17 05:55:38;;;;;;;9.60;7.30;;;;;;;26.28;43.34;100717.96;106842;1285;66585;-86
2023/08/17 05:58:04;;;;;;;9.30;7.30;;;;;;;26.30;43.42;100719.73;104537;1286;68785;-85
2023/08/17 06:00:38;;;;;;;10.00;6.50;;;;;;;26.32;43.42;100717.08;104062;1285;69370;-91
2023/08/17 06:03:04;;;;;;;10.90;6.40;;;;;;;26.32;43.54;100712.33;104404;1290;69249;-85
2023/08/17 06:05:30;;;;;;;7.80;6.40;;;;;;;26.33;43.51;100712.56;104387;1285;69449;-85
2023/08/17 06:07:58;;;;;;;9.30;6.80;;;;;;;26.34;43.63;100712.66;104512;1286;67698;-85
2023/08/17 06:10:27;;;;;;;11.10;6.80;;;;;;;26.35;43.51;100714.29;104386;1286;69072;-86
2023/08/17 06:12:56;;;;;;;8.30;6.60;;;;;;;26.35;43.51;100707.98;104268;1285;73607;-86
2023/08/17 06:17:58;;;;;;;14.40;6.80;;;;;;;26.38;43.46;100706.11;104687;1278;69129;-86
2023/08/17 06:20:23;;;;;;;7.80;6.40;;;;;;;26.39;43.48;100706.62;104605;1286;69337;-85
2023/08/17 06:22:49;;;;;;;7.50;6.30;;;;;;;26.40;43.42;100708.00;104383;1290;69188;-85
2023/08/17 06:25:15;;;;;;;10.40;6.40;;;;;;;26.40;43.54;100713.92;104754;1288;69242;-86
2023/08/17 06:27:41;;;;;;;7.80;6.60;;;;;;;26.41;43.38;100711.73;104647;1288;69202;-86
2023/08/17 06:30:07;;;;;;;8.10;6.50;;;;;;;26.43;43.57;100710.16;104480;1288;69084;-85
2023/08/17 06:32:33;;;;;;;10.20;6.40;;;;;;;26.44;43.62;100711.54;104435;1290;69150;-85
2023/08/17 06:34:58;;;;;;;9.30;5.80;;;;;;;26.46;43.60;100714.59;104577;1286;69912;-86
2023/08/17 06:37:24;;;;;;;14.40;6.10;;;;;;;26.46;43.55;100715.10;104548;1292;69073;-85
2023/08/17 06:39:49;;;;;;;7.50;5.90;;;;;;;26.48;43.53;100718.67;104508;1287;69259;-86
2023/08/17 06:44:56;;;;;;;10.00;5.90;;;;;;;26.50;43.36;100719.76;104400;1285;73494;-87
2023/08/17 06:47:21;;;;;;;13.40;5.90;;;;;;;26.51;43.40;100722.27;104529;1285;69251;-87
2023/08/17 06:49:47;;;;;;;12.90;6.10;;;;;;;26.52;43.37;100720.29;104717;1285;69652;-88
2023/08/17 06:52:12;;;;;;;10.70;6.10;;;;;;;26.54;43.48;100720.98;104660;1285;69193;-88
2023/08/17 06:54:38;;;;;;;8.20;6.30;;;;;;;26.55;43.48;100718.17;104435;1285;69775;-87
2023/08/17 06:57:04;;;;;;;11.20;6.40;;;;;;;26.57;43.26;100722.59;104382;1285;69282;-86
2023/08/17 06:59:30;;;;;;;11.80;6.10;;;;;;;26.59;43.27;100721.94;104681;1288;69319;-86
2023/08/17 07:01:59;;;;;;;9.70;6.10;;;;;;;26.61;43.25;100719.46;104824;1285;69131;-86
2023/08/17 07:04:24;;;;;;;7.30;5.90;;;;;;;26.62;43.29;100724.34;104481;1285;70361;-86
2023/08/17 07:06:50;;;;;;;12.30;6.20;;;;;;;26.64;43.28;100723.44;104566;1290;69303;-87
2023/08/17 07:09:24;;;;;;;7.10;5.70;;;;;;;26.65;43.33;100723.50;104635;1285;69250;-92
2023/08/17 07:11:50;;;;;;;9.20;6.50;;;;;;;26.67;43.31;100721.15;104481;1288;69238;-86
2023/08/17 07:14:15;;;;;;;10.00;5.80;;;;;;;26.69;43.16;100719.46;105664;1285;69243;-87
2023/08/17 07:16:42;;;;;;;8.30;6.00;;;;;;;26.69;43.27;100719.09;104374;1286;69187;-87
2023/08/17 07:19:08;;;;;;;10.60;5.90;;;;;;;26.71;43.04;100717.72;104486;1286;69264;-86
2023/08/17 07:21:33;;;;;;;10.20;6.30;;;;;;;26.73;43.14;100721.59;104580;1286;69249;-88
2023/08/17 07:24:21;;;;;;;7.30;6.10;;;;;;;26.74;43.02;100721.01;104550;1288;67370;-87
2023/08/17 07:26:47;;;;;;;7.10;5.90;;;;;;;26.76;42.99;100724.59;104235;1288;69087;-86
2023/08/17 07:29:12;;;;;;;11.80;5.80;;;;;;;26.77;43.02;100722.90;104484;1285;69234;-86
2023/08/17 07:31:38;;;;;;;8.30;5.60;;;;;;;26.78;42.81;100724.84;104827;1288;69234;-87
2023/08/17 07:34:05;;;;;;;7.60;5.40;;;;;;;26.81;42.88;100721.98;104604;1288;69201;-86
2023/08/17 07:36:31;;;;;;;7.90;5.50;;;;;;;26.82;42.78;100715.77;104212;1286;69602;-87
2023/08/17 07:38:57;;;;;;;7.90;5.50;;;;;;;26.83;42.78;100714.77;104508;1285;69381;-87
2023/08/17 07:41:22;;;;;;;9.70;5.90;;;;;;;26.85;42.69;100719.63;104717;1291;66610;-87
2023/08/17 07:43:48;;;;;;;10.80;5.80;;;;;;;26.87;42.57;100722.17;104422;1288;67758;-87
2023/08/17 07:46:13;;;;;;;15.70;5.70;;;;;;;26.89;42.58;100718.30;104354;1288;69291;-87
2023/08/17 07:48:41;;;;;;;9.90;5.70;;;;;;;26.90;42.64;100718.16;104355;1291;69284;-87
2023/08/17 07:51:15;;;;;;;8.00;5.60;;;;;;;26.92;42.47;100720.48;104451;1285;69154;-92
2023/08/17 07:53:41;;;;;;;10.30;5.30;;;;;;;26.93;42.34;100722.83;104447;1289;69258;-86
2023/08/17 07:56:09;;;;;;;8.40;5.80;;;;;;;26.95;42.35;100725.46;104458;1288;69159;-87
2023/08/17 07:58:35;;;;;;;6.50;5.10;;;;;;;26.97;42.33;100722.64;104621;1289;69100;-86
2023/08/17 08:01:00;;;;;;;8.90;5.40;;;;;;;26.99;42.12;100722.89;104437;1288;71530;-87
2023/08/17 08:03:26;;;;;;;7.40;5.00;;;;;;;27.01;42.09;100726.26;104496;1290;68520;-86
2023/08/17 08:05:51;;;;;;;14.90;5.20;;;;;;;27.02;42.08;100719.27;104145;1285;69326;-86
2023/08/17 08:08:17;;;;;;;7.50;5.30;;;;;;;27.03;41.98;100718.05;104506;1288;69254;-86
2023/08/17 08:10:43;;;;;;;7.00;5.20;;;;;;;27.04;41.91;100720.58;104439;1289;67895;-87
2023/08/17 08:13:09;;;;;;;7.70;5.10;;;;;;;27.05;41.76;100718.13;104472;1288;67246;-87
2023/08/17 08:15:35;;;;;;;7.70;5.00;;;;;;;27.07;41.82;100718.35;104535;1289;69257;-87
2023/08/17 08:18:00;;;;;;;7.90;5.70;;;;;;;27.08;41.68;100715.48;104241;1286;69147;-87
2023/08/17 08:20:26;;;;;;;8.10;5.20;;;;;;;27.10;41.67;100711.52;104474;1287;69327;-87
2023/08/17 08:22:51;;;;;;;10.00;5.40;;;;;;;27.11;41.57;100717.94;104337;1290;70617;-86
2023/08/17 08:25:17;;;;;;;7.50;5.20;;;;;;;27.12;41.57;100712.33;104374;1290;69326;-86
2023/08/17 08:27:42;;;;;;;6.00;5.00;;;;;;;27.13;41.54;100715.27;104332;1290;69277;-87
2023/08/17 08:30:08;;;;;;;7.20;5.20;;;;;;;27.15;41.47;100713.52;104510;1285;69214;-86
2023/08/17 08:32:36;;;;;;;9.00;6.00;;;;;;;27.17;41.60;100716.11;104409;1288;69164;-86
2023/08/17 08:35:02;;;;;;;14.90;5.60;;;;;;;27.18;41.40;100725.02;104422;1288;69295;-86
2023/08/17 08:37:28;;;;;;;6.70;5.30;;;;;;;27.19;41.35;100726.70;104558;1286;69231;-86
2023/08/17 08:39:54;;;;;;;7.70;4.80;;;;;;;27.21;41.37;100726.83;104452;1288;69293;-87
2023/08/17 08:42:20;;;;;;;7.90;4.70;;;;;;;27.21;41.39;100726.18;104355;1288;69259;-87
2023/08/17 08:44:46;;;;;;;7.30;4.40;;;;;;;27.22;41.30;100719.72;104637;1286;73363;-87
2023/08/17 08:47:12;;;;;;;15.30;5.00;;;;;;;27.24;41.19;100722.92;104109;1287;69238;-86
2023/08/17 08:49:40;;;;;;;9.00;4.90;;;;;;;27.26;41.02;100724.96;104075;1288;69441;-87
2023/08/17 08:52:11;;;;;;;11.40;5.40;;;;;;;27.27;41.01;100720.23;104189;1287;69201;-87
2023/08/17 08:54:37;;;;;;;9.20;5.80;;;;;;;27.28;40.85;100712.77;104749;1288;67219;-87
2023/08/17 08:57:06;;;;;;;7.70;5.90;;;;;;;27.29;40.72;100707.48;104280;1288;69331;-87
2023/08/17 08:59:33;;;;;;;13.70;5.50;;;;;;;27.28;40.51;100701.08;104241;1288;69261;-86
2023/08/17 09:01:59;;;;;;;8.70;5.00;;;;;;;27.28;40.43;100697.63;104479;1288;69143;-87
2023/08/17 09:04:25;;;;;;;6.90;4.50;;;;;;;27.29;40.28;100698.54;104429;1286;70486;-86
2023/08/17 09:06:50;;;;;;;7.80;5.20;;;;;;;27.29;40.15;100696.58;104542;1287;69190;-87
2023/08/17 09:09:17;;;;;;;6.30;4.60;;;;;;;27.29;39.92;100703.74;104535;1287;69083;-87
2023/08/17 09:14:23;;;;;;;6.80;4.60;;;;;;;27.29;39.85;100687.98;104258;1288;69135;-87
2023/08/17 09:16:48;;;;;;;6.70;4.80;;;;;;;27.32;39.69;100689.64;104269;1289;69774;-87
2023/08/17 09:19:14;;;;;;;6.50;4.60;;;;;;;27.33;39.58;100701.23;104316;1289;69257;-87
2023/08/17 09:21:39;;;;;;;5.40;4.60;;;;;;;27.34;39.63;100696.24;104296;1292;69253;-87
2023/08/17 09:24:08;;;;;;;8.10;4.50;;;;;;;27.36;39.43;100685.63;104431;1287;69267;-88
2023/08/17 09:26:34;;;;;;;8.50;4.60;;;;;;;27.37;39.34;100685.07;104145;1293;69274;-87
2023/08/17 09:29:36;;;;;;;4.70;4.20;;;;;;;27.39;39.30;100679.73;104130;1288;69375;-87
2023/08/17 09:32:06;;;;;;;6.40;4.40;;;;;;;27.42;39.05;100677.47;104340;1287;73674;-87
2023/08/17 09:34:32;;;;;;;5.90;4.10;;;;;;;27.43;38.87;100685.81;104412;1290;69304;-87
2023/08/17 09:37:03;;;;;;;9.30;4.70;;;;;;;27.44;38.95;100686.31;104341;1287;69232;-87
2023/08/17 09:39:28;;;;;;;6.80;4.40;;;;;;;27.42;38.91;100681.40;104290;1288;69264;-87
2023/08/17 09:41:55;;;;;;;6.40;4.30;;;;;;;27.42;38.88;100677.30;104253;1287;69130;-88
2023/08/17 09:44:20;;;;;;;5.80;4.30;;;;;;;27.42;38.68;100676.73;104309;1287;69145;-88
2023/08/17 09:46:46;;;;;;;6.60;4.00;;;;;;;27.42;38.64;100675.08;104132;1288;69358;-86
2023/08/17 09:49:11;;;;;;;5.30;3.90;;;;;;;27.42;38.59;100673.34;104211;1291;69256;-87
2023/08/17 09:51:37;;;;;;;4.90;3.80;;;;;;;27.41;38.40;100675.00;104087;1290;69357;-87
2023/08/17 09:54:03;;;;;;;7.00;4.10;;;;;;;27.41;38.42;100676.20;104421;1288;69287;-88
2023/08/17 09:56:28;;;;;;;6.20;4.30;;;;;;;27.40;38.33;100683.77;104220;1287;69283;-87
2023/08/17 09:58:55;;;;;;;8.10;3.80;;;;;;;27.39;38.34;100685.55;104204;1288;69201;-87
2023/08/17 10:01:22;;;;;;;5.70;3.70;;;;;;;27.38;38.29;100679.63;104319;1291;69385;-87
2023/08/17 10:03:49;;;;;;;5.40;3.40;;;;;;;27.38;38.27;100684.85;104466;1290;69055;-87
2023/08/17 10:06:22;;;;;;;5.70;3.80;;;;;;;27.37;38.15;100680.41;104221;1293;69294;-88
2023/08/17 10:08:49;;;;;;;5.60;3.90;;;;;;;27.37;38.19;100677.07;104294;1289;69259;-87
2023/08/17 10:11:18;;;;;;;6.40;3.70;;;;;;;27.37;38.09;100680.78;103795;1289;69280;-87
2023/08/17 10:13:59;;;;;;;5.40;3.90;;;;;;;27.36;38.05;100675.32;104203;1293;69210;-87
2023/08/17 10:16:44;;;;;;;4.40;3.60;;;;;;;27.35;37.93;100672.23;104301;1290;69241;-87
2023/08/17 10:19:52;;;;;;;5.40;3.30;;;;;;;27.35;37.88;100668.63;104372;1289;74491;-87
2023/08/17 10:22:17;;;;;;;6.20;3.80;;;;;;;27.36;37.70;100668.91;104333;1289;69219;-87
2023/08/17 10:24:43;;;;;;;4.70;3.80;;;;;;;27.40;37.37;100664.80;104646;1290;69287;-87
2023/08/17 10:27:08;;;;;;;4.40;3.80;;;;;;;27.43;37.18;100664.48;104223;1290;69309;-87
2023/08/17 10:29:41;;;;;;;5.60;3.70;;;;;;;27.45;37.10;100657.85;104092;1290;69354;-93
2023/08/17 10:32:07;;;;;;;6.70;4.40;;;;;;;27.46;37.15;100660.41;104026;1289;74739;-86
2023/08/17 10:34:34;;;;;;;8.00;3.90;;;;;;;27.49;36.97;100658.10;104234;1290;69316;-87
2023/08/17 10:37:00;;;;;;;4.70;3.20;;;;;;;27.51;36.98;100655.73;104105;1290;69663;-87
2023/08/17 10:39:28;;;;;;;6.50;3.40;;;;;;;27.53;36.95;100653.27;104305;1290;67373;-87
2023/08/17 10:41:54;;;;;;;5.40;3.80;;;;;;;27.55;36.97;100655.33;103973;1290;69171;-88
2023/08/17 10:44:46;;;;;;;8.60;3.40;;;;;;;27.56;36.82;100653.48;103892;1288;69197;-87
2023/08/17 10:47:19;;;;;;;6.70;3.60;;;;;;;27.59;36.73;100650.48;104274;1288;69992;-87
2023/08/17 10:49:45;;;;;;;5.30;3.50;;;;;;;27.60;36.61;100653.02;104863;1287;69163;-87
2023/08/17 10:52:10;;;;;;;10.00;3.70;;;;;;;27.61;36.52;100645.67;104182;1289;69347;-87
2023/08/17 10:54:37;;;;;;;6.20;3.20;;;;;;;27.61;36.44;100636.77;105078;1292;69284;-88
2023/08/17 10:57:32;;;;;;;5.00;3.40;;;;;;;27.62;36.36;100644.85;104193;1291;69640;-87
2023/08/17 11:00:16;;;;;;;7.90;3.80;;;;;;;27.63;36.44;100646.75;105249;1288;69238;-87
2023/08/17 11:02:52;;;;;;;4.90;3.60;;;;;;;27.63;36.69;100640.34;104234;1289;69170;-87
2023/08/17 11:08:05;;;;;;;4.30;3.50;;;;;;;27.63;36.63;100637.81;104236;1292;69279;-87
2023/08/17 11:10:31;;;;;;;6.10;3.20;;;;;;;27.64;36.54;100635.77;104408;1286;73398;-87
2023/08/17 11:12:59;;;;;;;5.10;3.10;;;;;;;27.64;36.56;100630.39;104448;1287;69266;-87
2023/08/17 11:15:26;;;;;;;9.00;3.60;;;;;;;27.65;36.51;100633.30;104285;1291;69260;-87
2023/08/17 11:17:52;;;;;;;6.50;3.20;;;;;;;27.66;36.48;100630.14;104213;1292;69394;-87
2023/08/17 11:22:51;;;;;;;4.70;3.40;;;;;;;27.67;36.54;100622.05;104557;1287;72748;-87
2023/08/17 11:25:17;;;;;;;6.30;3.70;;;;;;;27.69;36.57;100620.23;104624;1285;69217;-87
2023/08/17 11:27:43;;;;;;;8.60;3.50;;;;;;;27.70;36.60;100618.14;104378;1286;69192;-87
2023/08/17 11:30:09;;;;;;;8.40;3.60;;;;;;;27.71;36.52;100617.48;104573;1291;69898;-87
2023/08/17 11:32:34;;;;;;;4.40;3.50;;;;;;;27.72;36.47;100622.56;104404;1285;69185;-87
2023/08/17 11:35:00;;;;;;;5.70;4.00;;;;;;;27.73;36.51;100627.73;104444;1291;70809;-87
2023/08/17 11:37:25;;;;;;;4.40;3.30;;;;;;;27.73;36.63;100613.51;104470;1288;68291;-87
2023/08/17 11:39:51;;;;;;;6.70;3.50;;;;;;;27.73;36.65;100608.13;104541;1290;69335;-87
2023/08/17 11:42:17;;;;;;;6.20;3.80;;;;;;;27.73;36.69;100613.24;104321;1293;69341;-87
2023/08/17 11:44:42;;;;;;;4.80;3.60;;;;;;;27.73;36.76;100614.34;104506;1289;69372;-87
2023/08/17 11:49:49;;;;;;;5.50;4.30;;;;;;;27.73;36.83;100616.24;104310;1287;69226;-87